sensor_id;sensor_type;location;lat;lon;timestamp;pressure;altitude;pressure_sealevel;temperature;humidity
40708;BME280;26392;42.696;23.350;2023-07-13T00:01:12;95536.38;;;22.73;100.00
40708;BME280;26392;42.696;23.350;2023-07-13T00:03:38;95539.78;;;22.70;99.65
40708;BME280;26392;42.696;23.350;2023-07-13T00:06:06;95535.56;;;22.64;99.70
40708;BME280;26392;42.696;23.350;2023-07-13T00:08:32;95534.91;;;22.67;100.00
40708;BME280;26392;42.696;23.350;2023-07-13T00:10:59;95534.75;;;22.63;100.00
40708;BME280;26392;42.696;23.350;2023-07-13T00:13:24;95532.59;;;22.60;100.00
40708;BME280;26392;42.696;23.350;2023-07-13T00:15:50;95535.22;;;22.48;100.00
40708;BME280;26392;42.696;23.350;2023-07-13T00:18:15;95538.31;;;22.38;100.00
40708;BME280;26392;42.696;23.350;2023-07-13T00:20:41;95536.38;;;22.29;100.00
40708;BME280;26392;42.696;23.350;2023-07-13T00:23:07;95527.38;;;22.24;100.00
40708;BME280;26392;42.696;23.350;2023-07-13T00:25:32;95526.06;;;22.21;100.00
40708;BME280;26392;42.696;23.350;2023-07-13T00:27:57;95524.75;;;22.19;100.00
40708;BME280;26392;42.696;23.350;2023-07-13T00:30:23;95518.84;;;22.20;100.00
40708;BME280;26392;42.696;23.350;2023-07-13T00:32:49;95518.56;;;22.22;100.00
40708;BME280;26392;42.696;23.350;2023-07-13T00:35:15;95520.00;;;22.19;100.00
40708;BME280;26392;42.696;23.350;2023-07-13T00:37:41;95518.00;;;22.11;100.00
40708;BME280;26392;42.696;23.350;2023-07-13T00:40:07;95518.16;;;22.15;100.00
40708;BME280;26392;42.696;23.350;2023-07-13T00:42:33;95516.38;;;22.10;100.00
40708;BME280;26392;42.696;23.350;2023-07-13T00:47:27;95525.19;;;22.12;100.00
40708;BME280;26392;42.696;23.350;2023-07-13T00:49:53;95523.53;;;21.94;100.00
40708;BME280;26392;42.696;23.350;2023-07-13T00:52:18;95518.13;;;21.88;100.00
40708;BME280;26392;42.696;23.350;2023-07-13T00:54:46;95520.53;;;21.81;100.00
40708;BME280;26392;42.696;23.350;2023-07-13T00:57:17;95517.75;;;21.81;100.00
40708;BME280;26392;42.696;23.350;2023-07-13T00:59:46;95522.00;;;21.79;100.00
40708;BME280;26392;42.696;23.350;2023-07-13T01:02:12;95512.56;;;21.80;100.00
40708;BME280;26392;42.696;23.350;2023-07-13T01:04:38;95511.75;;;21.79;100.00
40708;BME280;26392;42.696;23.350;2023-07-13T01:07:05;95514.31;;;21.76;100.00
40708;BME280;26392;42.696;23.350;2023-07-13T01:09:31;95513.19;;;21.77;100.00
40708;BME280;26392;42.696;23.350;2023-07-13T01:11:56;95510.75;;;21.75;100.00
40708;BME280;26392;42.696;23.350;2023-07-13T01:14:22;95514.16;;;21.72;100.00
40708;BME280;26392;42.696;23.350;2023-07-13T01:16:49;95513.34;;;21.72;100.00
40708;BME280;26392;42.696;23.350;2023-07-13T01:21:50;95510.41;;;21.68;100.00
40708;BME280;26392;42.696;23.350;2023-07-13T01:24:15;95507.94;;;21.66;100.00
40708;BME280;26392;42.696;23.350;2023-07-13T01:26:41;95511.34;;;21.63;100.00
40708;BME280;26392;42.696;23.350;2023-07-13T01:29:06;95508.09;;;21.61;100.00
40708;BME280;26392;42.696;23.350;2023-07-13T01:31:33;95514.78;;;21.60;100.00
40708;BME280;26392;42.696;23.350;2023-07-13T01:33:58;95506.69;;;21.41;100.00
40708;BME280;26392;42.696;23.350;2023-07-13T01:36:23;95511.03;;;21.34;100.00
40708;BME280;26392;42.696;23.350;2023-07-13T01:38:49;95514.66;;;21.34;100.00
40708;BME280;26392;42.696;23.350;2023-07-13T01:41:14;95513.50;;;21.35;100.00
40708;BME280;26392;42.696;23.350;2023-07-13T01:43:40;95515.66;;;21.38;100.00
40708;BME280;26392;42.696;23.350;2023-07-13T01:46:05;95516.16;;;21.40;100.00
40708;BME280;26392;42.696;23.350;2023-07-13T01:48:31;95516.09;;;21.32;100.00
40708;BME280;26392;42.696;23.350;2023-07-13T01:50:56;95509.03;;;21.26;100.00
40708;BME280;26392;42.696;23.350;2023-07-13T01:53:21;95508.22;;;21.25;100.00
40708;BME280;26392;42.696;23.350;2023-07-13T01:55:47;95500.22;;;21.15;100.00
40708;BME280;26392;42.696;23.350;2023-07-13T01:58:12;95517.00;;;21.18;100.00
40708;BME280;26392;42.696;23.350;2023-07-13T02:00:38;95510.50;;;21.23;100.00
40708;BME280;26392;42.696;23.350;2023-07-13T02:03:03;95529.22;;;21.17;100.00
40708;BME280;26392;42.696;23.350;2023-07-13T02:05:29;95517.47;;;21.12;100.00
40708;BME280;26392;42.696;23.350;2023-07-13T02:07:54;95529.16;;;21.09;100.00
40708;BME280;26392;42.696;23.350;2023-07-13T02:10:20;95530.63;;;21.06;100.00
40708;BME280;26392;42.696;23.350;2023-07-13T02:12:45;95524.41;;;21.00;100.00
40708;BME280;26392;42.696;23.350;2023-07-13T02:15:11;95526.03;;;21.01;100.00
40708;BME280;26392;42.696;23.350;2023-07-13T02:17:36;95526.66;;;20.98;100.00
40708;BME280;26392;42.696;23.350;2023-07-13T02:20:03;95514.25;;;20.96;100.00
40708;BME280;26392;42.696;23.350;2023-07-13T02:22:28;95525.22;;;21.01;100.00
40708;BME280;26392;42.696;23.350;2023-07-13T02:24:54;95519.47;;;20.97;100.00
40708;BME280;26392;42.696;23.350;2023-07-13T02:27:19;95531.06;;;20.99;100.00
40708;BME280;26392;42.696;23.350;2023-07-13T02:29:45;95521.44;;;20.97;100.00
40708;BME280;26392;42.696;23.350;2023-07-13T02:32:10;95537.34;;;20.91;100.00
40708;BME280;26392;42.696;23.350;2023-07-13T02:34:36;95538.38;;;20.95;100.00
40708;BME280;26392;42.696;23.350;2023-07-13T02:37:01;95531.19;;;20.94;100.00
40708;BME280;26392;42.696;23.350;2023-07-13T02:39:28;95534.09;;;20.89;100.00
40708;BME280;26392;42.696;23.350;2023-07-13T02:41:53;95542.59;;;20.93;100.00
40708;BME280;26392;42.696;23.350;2023-07-13T02:44:18;95537.00;;;20.84;100.00
40708;BME280;26392;42.696;23.350;2023-07-13T02:46:44;95539.19;;;20.73;100.00
40708;BME280;26392;42.696;23.350;2023-07-13T02:49:10;95526.91;;;20.66;100.00
40708;BME280;26392;42.696;23.350;2023-07-13T02:51:35;95538.31;;;20.64;100.00
40708;BME280;26392;42.696;23.350;2023-07-13T02:54:02;95541.22;;;20.59;100.00
40708;BME280;26392;42.696;23.350;2023-07-13T02:56:30;95540.78;;;20.52;100.00
40708;BME280;26392;42.696;23.350;2023-07-13T02:58:56;95541.00;;;20.55;100.00
40708;BME280;26392;42.696;23.350;2023-07-13T03:01:23;95541.41;;;20.49;100.00
40708;BME280;26392;42.696;23.350;2023-07-13T03:03:50;95544.91;;;20.41;100.00
40708;BME280;26392;42.696;23.350;2023-07-13T03:06:16;95546.34;;;20.38;100.00
40708;BME280;26392;42.696;23.350;2023-07-13T03:08:42;95548.50;;;20.41;100.00
40708;BME280;26392;42.696;23.350;2023-07-13T03:11:14;95545.44;;;20.43;100.00
40708;BME280;26392;42.696;23.350;2023-07-13T03:13:40;95553.72;;;20.43;100.00
40708;BME280;26392;42.696;23.350;2023-07-13T03:16:08;95551.06;;;20.38;100.00
40708;BME280;26392;42.696;23.350;2023-07-13T03:18:33;95549.63;;;20.40;100.00
40708;BME280;26392;42.696;23.350;2023-07-13T03:20:59;95553.22;;;20.41;100.00
40708;BME280;26392;42.696;23.350;2023-07-13T03:23:24;95560.47;;;20.50;100.00
40708;BME280;26392;42.696;23.350;2023-07-13T03:25:50;95551.75;;;20.57;100.00
40708;BME280;26392;42.696;23.350;2023-07-13T03:28:16;95557.19;;;20.62;100.00
40708;BME280;26392;42.696;23.350;2023-07-13T03:30:42;95544.03;;;20.68;100.00
40708;BME280;26392;42.696;23.350;2023-07-13T03:33:07;95555.31;;;20.71;100.00
40708;BME280;26392;42.696;23.350;2023-07-13T03:35:33;95540.06;;;20.60;100.00
40708;BME280;26392;42.696;23.350;2023-07-13T03:37:59;95559.78;;;20.81;100.00
40708;BME280;26392;42.696;23.350;2023-07-13T03:40:26;95560.91;;;20.80;100.00
40708;BME280;26392;42.696;23.350;2023-07-13T03:42:52;95566.56;;;20.97;100.00
40708;BME280;26392;42.696;23.350;2023-07-13T03:45:17;95562.28;;;21.14;100.00
40708;BME280;26392;42.696;23.350;2023-07-13T03:47:43;95556.00;;;21.31;100.00
40708;BME280;26392;42.696;23.350;2023-07-13T03:50:09;95556.50;;;21.55;100.00
40708;BME280;26392;42.696;23.350;2023-07-13T03:52:34;95557.22;;;21.70;100.00
40708;BME280;26392;42.696;23.350;2023-07-13T03:54:59;95562.47;;;21.80;100.00
40708;BME280;26392;42.696;23.350;2023-07-13T03:57:25;95556.00;;;21.93;100.00
40708;BME280;26392;42.696;23.350;2023-07-13T03:59:51;95551.13;;;22.07;100.00
40708;BME280;26392;42.696;23.350;2023-07-13T04:02:16;95555.50;;;22.00;100.00
40708;BME280;26392;42.696;23.350;2023-07-13T04:04:42;95551.78;;;22.04;100.00
40708;BME280;26392;42.696;23.350;2023-07-13T04:07:08;95534.34;;;22.12;100.00
40708;BME280;26392;42.696;23.350;2023-07-13T04:09:34;95540.41;;;22.32;100.00
40708;BME280;26392;42.696;23.350;2023-07-13T04:12:00;95552.53;;;22.88;100.00
40708;BME280;26392;42.696;23.350;2023-07-13T04:14:25;95562.38;;;23.67;100.00
40708;BME280;26392;42.696;23.350;2023-07-13T04:16:51;95547.47;;;24.61;100.00
40708;BME280;26392;42.696;23.350;2023-07-13T04:19:16;95556.00;;;25.52;100.00
40708;BME280;26392;42.696;23.350;2023-07-13T04:21:42;95556.78;;;26.47;100.00
40708;BME280;26392;42.696;23.350;2023-07-13T04:24:07;95570.75;;;27.40;91.73
40708;BME280;26392;42.696;23.350;2023-07-13T04:26:33;95539.56;;;27.70;85.11
40708;BME280;26392;42.696;23.350;2023-07-13T04:29:01;95559.88;;;28.82;79.51
40708;BME280;26392;42.696;23.350;2023-07-13T04:31:29;95560.00;;;29.63;72.11
40708;BME280;26392;42.696;23.350;2023-07-13T04:33:54;95563.47;;;30.22;67.52
40708;BME280;26392;42.696;23.350;2023-07-13T04:36:20;95568.53;;;30.89;64.22
40708;BME280;26392;42.696;23.350;2023-07-13T04:38:45;95570.97;;;31.51;59.62
40708;BME280;26392;42.696;23.350;2023-07-13T04:41:12;95568.94;;;31.85;56.12
40708;BME280;26392;42.696;23.350;2023-07-13T04:43:37;95571.31;;;31.79;57.19
40708;BME280;26392;42.696;23.350;2023-07-13T04:46:08;95574.91;;;32.17;54.33
40708;BME280;26392;42.696;23.350;2023-07-13T04:48:34;95573.84;;;31.92;54.25
40708;BME280;26392;42.696;23.350;2023-07-13T04:51:00;95577.50;;;31.96;54.39
40708;BME280;26392;42.696;23.350;2023-07-13T04:53:25;95570.16;;;32.25;53.29
40708;BME280;26392;42.696;23.350;2023-07-13T04:55:52;95591.09;;;32.75;52.16
40708;BME280;26392;42.696;23.350;2023-07-13T04:58:17;95592.34;;;32.82;50.66
40708;BME280;26392;42.696;23.350;2023-07-13T05:00:43;95586.59;;;32.64;50.64
40708;BME280;26392;42.696;23.350;2023-07-13T05:03:08;95590.13;;;33.09;49.99
40708;BME280;26392;42.696;23.350;2023-07-13T05:05:33;95585.00;;;33.25;50.02
40708;BME280;26392;42.696;23.350;2023-07-13T05:07:59;95589.19;;;33.56;48.74
40708;BME280;26392;42.696;23.350;2023-07-13T05:10:24;95585.66;;;33.99;47.49
40708;BME280;26392;42.696;23.350;2023-07-13T05:12:50;95591.72;;;34.01;46.31
40708;BME280;26392;42.696;23.350;2023-07-13T05:15:16;95581.13;;;32.92;48.95
40708;BME280;26392;42.696;23.350;2023-07-13T05:17:46;95599.16;;;33.36;48.47
40708;BME280;26392;42.696;23.350;2023-07-13T05:20:11;95591.66;;;33.83;47.18
40708;BME280;26392;42.696;23.350;2023-07-13T05:22:37;95595.34;;;34.01;46.47
40708;BME280;26392;42.696;23.350;2023-07-13T05:25:06;95590.56;;;34.13;46.03
40708;BME280;26392;42.696;23.350;2023-07-13T05:27:33;95588.88;;;33.90;46.84
40708;BME280;26392;42.696;23.350;2023-07-13T05:29:58;95567.84;;;33.70;46.79
40708;BME280;26392;42.696;23.350;2023-07-13T05:32:23;95591.44;;;33.22;47.64
40708;BME280;26392;42.696;23.350;2023-07-13T05:34:49;95598.03;;;32.37;51.09
40708;BME280;26392;42.696;23.350;2023-07-13T05:37:14;95586.22;;;31.46;54.42
40708;BME280;26392;42.696;23.350;2023-07-13T05:39:40;95599.47;;;30.62;56.58
40708;BME280;26392;42.696;23.350;2023-07-13T05:42:05;95600.19;;;29.48;62.59
40708;BME280;26392;42.696;23.350;2023-07-13T05:44:31;95591.25;;;29.42;67.18
40708;BME280;26392;42.696;23.350;2023-07-13T05:46:56;95593.09;;;28.80;69.35
40708;BME280;26392;42.696;23.350;2023-07-13T05:49:22;95600.91;;;28.39;72.30
40708;BME280;26392;42.696;23.350;2023-07-13T05:51:48;95602.19;;;28.25;75.07
40708;BME280;26392;42.696;23.350;2023-07-13T05:54:13;95597.94;;;28.16;78.79
40708;BME280;26392;42.696;23.350;2023-07-13T05:56:39;95583.47;;;27.98;75.22
40708;BME280;26392;42.696;23.350;2023-07-13T05:59:04;95601.13;;;27.98;80.03
40708;BME280;26392;42.696;23.350;2023-07-13T06:01:30;95590.66;;;27.95;81.02
40708;BME280;26392;42.696;23.350;2023-07-13T06:03:56;95576.94;;;27.78;80.34
40708;BME280;26392;42.696;23.350;2023-07-13T06:06:21;95581.25;;;27.75;81.65
40708;BME280;26392;42.696;23.350;2023-07-13T06:08:47;95580.69;;;27.82;82.30
40708;BME280;26392;42.696;23.350;2023-07-13T06:11:20;95588.91;;;27.91;80.16
40708;BME280;26392;42.696;23.350;2023-07-13T06:13:46;95589.63;;;28.03;81.18
40708;BME280;26392;42.696;23.350;2023-07-13T06:16:13;95602.81;;;28.03;79.74
40708;BME280;26392;42.696;23.350;2023-07-13T06:18:39;95597.22;;;28.03;81.04
40708;BME280;26392;42.696;23.350;2023-07-13T06:21:07;95597.56;;;27.85;79.34
40708;BME280;26392;42.696;23.350;2023-07-13T06:23:33;95597.31;;;27.91;80.18
40708;BME280;26392;42.696;23.350;2023-07-13T06:25:58;95598.69;;;27.68;81.72
40708;BME280;26392;42.696;23.350;2023-07-13T06:28:24;95594.47;;;27.47;82.66
40708;BME280;26392;42.696;23.350;2023-07-13T06:30:49;95591.69;;;27.47;85.73
40708;BME280;26392;42.696;23.350;2023-07-13T06:33:14;95586.56;;;27.49;82.50
40708;BME280;26392;42.696;23.350;2023-07-13T06:35:40;95586.16;;;27.34;85.01
40708;BME280;26392;42.696;23.350;2023-07-13T06:38:05;95585.47;;;27.25;85.89
40708;BME280;26392;42.696;23.350;2023-07-13T06:40:31;95594.09;;;27.32;84.43
40708;BME280;26392;42.696;23.350;2023-07-13T06:42:56;95593.47;;;26.98;82.94
40708;BME280;26392;42.696;23.350;2023-07-13T06:45:22;95589.50;;;26.99;85.29
40708;BME280;26392;42.696;23.350;2023-07-13T06:47:48;95591.34;;;27.20;81.60
40708;BME280;26392;42.696;23.350;2023-07-13T06:50:13;95582.84;;;27.44;79.12
40708;BME280;26392;42.696;23.350;2023-07-13T06:52:38;95583.09;;;27.67;82.23
40708;BME280;26392;42.696;23.350;2023-07-13T06:55:04;95585.41;;;27.65;77.00
40708;BME280;26392;42.696;23.350;2023-07-13T06:57:30;95584.06;;;27.75;80.40
40708;BME280;26392;42.696;23.350;2023-07-13T06:59:55;95586.28;;;27.82;76.62
40708;BME280;26392;42.696;23.350;2023-07-13T07:02:20;95592.78;;;27.58;77.17
40708;BME280;26392;42.696;23.350;2023-07-13T07:04:46;95584.41;;;27.58;79.10
40708;BME280;26392;42.696;23.350;2023-07-13T07:07:11;95591.16;;;27.85;78.04
40708;BME280;26392;42.696;23.350;2023-07-13T07:09:36;95583.75;;;28.08;73.19
40708;BME280;26392;42.696;23.350;2023-07-13T07:12:02;95589.47;;;28.12;70.24
40708;BME280;26392;42.696;23.350;2023-07-13T07:14:28;95585.66;;;28.20;68.27
40708;BME280;26392;42.696;23.350;2023-07-13T07:16:53;95572.38;;;28.33;70.05
40708;BME280;26392;42.696;23.350;2023-07-13T07:19:19;95576.50;;;28.39;70.36
40708;BME280;26392;42.696;23.350;2023-07-13T07:21:45;95570.72;;;28.48;69.40
40708;BME280;26392;42.696;23.350;2023-07-13T07:24:10;95570.72;;;28.64;65.66
40708;BME280;26392;42.696;23.350;2023-07-13T07:26:36;95571.53;;;28.48;66.61
40708;BME280;26392;42.696;23.350;2023-07-13T07:29:01;95567.38;;;28.58;65.28
40708;BME280;26392;42.696;23.350;2023-07-13T07:31:26;95575.03;;;28.77;69.01
40708;BME280;26392;42.696;23.350;2023-07-13T07:33:52;95563.22;;;28.87;64.46
40708;BME280;26392;42.696;23.350;2023-07-13T07:36:17;95560.94;;;28.93;66.20
40708;BME280;26392;42.696;23.350;2023-07-13T07:38:43;95546.94;;;29.12;65.07
40708;BME280;26392;42.696;23.350;2023-07-13T07:41:08;95557.53;;;29.19;63.33
40708;BME280;26392;42.696;23.350;2023-07-13T07:43:34;95559.06;;;29.36;64.26
40708;BME280;26392;42.696;23.350;2023-07-13T07:46:00;95561.19;;;29.42;64.46
40708;BME280;26392;42.696;23.350;2023-07-13T07:48:25;95554.84;;;29.45;61.86
40708;BME280;26392;42.696;23.350;2023-07-13T07:50:51;95555.44;;;29.35;60.97
40708;BME280;26392;42.696;23.350;2023-07-13T07:53:16;95551.31;;;29.29;63.23
40708;BME280;26392;42.696;23.350;2023-07-13T07:55:41;95545.34;;;29.11;63.65
40708;BME280;26392;42.696;23.350;2023-07-13T07:58:07;95542.53;;;29.31;64.88
40708;BME280;26392;42.696;23.350;2023-07-13T08:00:33;95533.28;;;29.50;61.71
40708;BME280;26392;42.696;23.350;2023-07-13T08:02:58;95536.13;;;29.73;62.31
40708;BME280;26392;42.696;23.350;2023-07-13T08:05:24;95532.38;;;29.88;60.37
40708;BME280;26392;42.696;23.350;2023-07-13T08:07:50;95531.53;;;30.10;61.46
40708;BME280;26392;42.696;23.350;2023-07-13T08:10:16;95525.78;;;30.23;59.17
40708;BME280;26392;42.696;23.350;2023-07-13T08:12:41;95520.81;;;30.39;57.95
40708;BME280;26392;42.696;23.350;2023-07-13T08:15:11;95521.31;;;30.45;56.29
40708;BME280;26392;42.696;23.350;2023-07-13T08:17:36;95511.78;;;30.53;57.59
40708;BME280;26392;42.696;23.350;2023-07-13T08:20:02;95519.22;;;30.68;56.52
40708;BME280;26392;42.696;23.350;2023-07-13T08:22:27;95523.06;;;30.57;56.40
40708;BME280;26392;42.696;23.350;2023-07-13T08:24:53;95520.34;;;30.64;55.12
40708;BME280;26392;42.696;23.350;2023-07-13T08:27:22;95519.69;;;30.74;56.21
40708;BME280;26392;42.696;23.350;2023-07-13T08:29:48;95515.66;;;30.71;54.45
40708;BME280;26392;42.696;23.350;2023-07-13T08:32:14;95507.50;;;30.63;53.66
40708;BME280;26392;42.696;23.350;2023-07-13T08:34:39;95509.78;;;30.53;55.13
40708;BME280;26392;42.696;23.350;2023-07-13T08:37:06;95497.09;;;30.67;55.93
40708;BME280;26392;42.696;23.350;2023-07-13T08:39:32;95488.81;;;30.77;54.36
40708;BME280;26392;42.696;23.350;2023-07-13T08:42:01;95491.13;;;30.98;55.99
40708;BME280;26392;42.696;23.350;2023-07-13T08:47:12;95497.06;;;31.24;53.72
40708;BME280;26392;42.696;23.350;2023-07-13T08:49:39;95492.69;;;31.30;55.03
40708;BME280;26392;42.696;23.350;2023-07-13T08:52:15;95501.47;;;31.25;52.85
40708;BME280;26392;42.696;23.350;2023-07-13T08:54:49;95502.47;;;31.39;54.31
40708;BME280;26392;42.696;23.350;2023-07-13T08:57:19;95500.00;;;31.34;54.32
40708;BME280;26392;42.696;23.350;2023-07-13T08:59:45;95506.59;;;31.49;53.36
40708;BME280;26392;42.696;23.350;2023-07-13T09:02:52;95520.91;;;31.71;52.43
40708;BME280;26392;42.696;23.350;2023-07-13T09:05:40;95507.88;;;31.55;55.19
40708;BME280;26392;42.696;23.350;2023-07-13T09:10:46;95524.41;;;31.57;51.61
40708;BME280;26392;42.696;23.350;2023-07-13T09:15:47;95526.19;;;31.76;50.19
40708;BME280;26392;42.696;23.350;2023-07-13T09:18:21;95522.44;;;31.64;50.02
40708;BME280;26392;42.696;23.350;2023-07-13T09:20:52;95522.03;;;31.62;52.21
40708;BME280;26392;42.696;23.350;2023-07-13T09:23:21;95523.63;;;31.60;53.62
40708;BME280;26392;42.696;23.350;2023-07-13T09:25:49;95523.66;;;31.63;54.00
40708;BME280;26392;42.696;23.350;2023-07-13T09:28:24;95520.16;;;31.77;52.75
40708;BME280;26392;42.696;23.350;2023-07-13T09:33:21;95515.25;;;32.08;48.38
40708;BME280;26392;42.696;23.350;2023-07-13T09:35:47;95527.78;;;32.18;50.82
40708;BME280;26392;42.696;23.350;2023-07-13T09:38:17;95525.81;;;31.81;50.11
40708;BME280;26392;42.696;23.350;2023-07-13T09:43:15;95516.19;;;32.26;51.65
40708;BME280;26392;42.696;23.350;2023-07-13T09:45:45;95511.59;;;32.56;50.22
40708;BME280;26392;42.696;23.350;2023-07-13T09:48:12;95499.63;;;32.73;48.94
40708;BME280;26392;42.696;23.350;2023-07-13T09:50:42;95483.13;;;32.79;49.32
40708;BME280;26392;42.696;23.350;2023-07-13T09:53:19;95486.91;;;33.04;49.16
40708;BME280;26392;42.696;23.350;2023-07-13T09:55:47;95485.34;;;33.21;48.47
40708;BME280;26392;42.696;23.350;2023-07-13T09:58:23;95489.00;;;33.32;45.25
40708;BME280;26392;42.696;23.350;2023-07-13T10:01:02;95485.38;;;33.32;45.45
40708;BME280;26392;42.696;23.350;2023-07-13T10:03:33;95476.91;;;33.28;45.79
40708;BME280;26392;42.696;23.350;2023-07-13T10:06:15;95473.28;;;33.38;45.86
40708;BME280;26392;42.696;23.350;2023-07-13T10:08:44;95461.22;;;33.41;44.72
40708;BME280;26392;42.696;23.350;2023-07-13T10:11:14;95464.91;;;33.53;45.00
40708;BME280;26392;42.696;23.350;2023-07-13T10:13:45;95455.63;;;33.59;45.15
40708;BME280;26392;42.696;23.350;2023-07-13T10:16:11;95458.06;;;33.72;44.42
40708;BME280;26392;42.696;23.350;2023-07-13T10:21:37;95462.91;;;33.96;44.96
40708;BME280;26392;42.696;23.350;2023-07-13T10:24:13;95463.72;;;33.75;44.57
40708;BME280;26392;42.696;23.350;2023-07-13T10:26:56;95457.25;;;33.75;40.75
40708;BME280;26392;42.696;23.350;2023-07-13T10:29:26;95433.03;;;33.84;37.70
40708;BME280;26392;42.696;23.350;2023-07-13T10:31:52;95440.72;;;33.98;37.12
40708;BME280;26392;42.696;23.350;2023-07-13T10:34:18;95443.97;;;34.15;36.13
40708;BME280;26392;42.696;23.350;2023-07-13T10:36:46;95444.34;;;34.38;36.40
40708;BME280;26392;42.696;23.350;2023-07-13T10:39:26;95432.22;;;34.41;33.60
40708;BME280;26392;42.696;23.350;2023-07-13T10:42:17;95436.25;;;34.51;34.19
40708;BME280;26392;42.696;23.350;2023-07-13T10:44:43;95437.84;;;34.52;33.13
40708;BME280;26392;42.696;23.350;2023-07-13T10:47:14;95434.22;;;34.51;33.26
40708;BME280;26392;42.696;23.350;2023-07-13T10:49:42;95423.72;;;34.48;34.38
40708;BME280;26392;42.696;23.350;2023-07-13T10:55:40;95419.59;;;34.82;33.50
40708;BME280;26392;42.696;23.350;2023-07-13T10:58:35;95410.31;;;34.74;33.56
40708;BME280;26392;42.696;23.350;2023-07-13T11:01:09;95400.19;;;34.80;31.97
40708;BME280;26392;42.696;23.350;2023-07-13T11:04:00;95399.72;;;34.92;32.31
40708;BME280;26392;42.696;23.350;2023-07-13T11:06:37;95399.72;;;34.92;31.90
40708;BME280;26392;42.696;23.350;2023-07-13T11:12:00;95388.38;;;35.00;32.18
40708;BME280;26392;42.696;23.350;2023-07-13T11:14:35;95387.53;;;35.03;30.72
40708;BME280;26392;42.696;23.350;2023-07-13T11:23:08;95380.88;;;35.41;33.01
40708;BME280;26392;42.696;23.350;2023-07-13T11:25:35;95375.97;;;35.46;31.05
40708;BME280;26392;42.696;23.350;2023-07-13T11:36:10;95375.13;;;35.56;30.69
40708;BME280;26392;42.696;23.350;2023-07-13T11:38:40;95363.31;;;35.64;31.59
40708;BME280;26392;42.696;23.350;2023-07-13T11:41:14;95362.84;;;35.73;32.01
40708;BME280;26392;42.696;23.350;2023-07-13T11:43:40;95368.84;;;35.82;31.12
40708;BME280;26392;42.696;23.350;2023-07-13T11:46:19;95371.25;;;35.84;31.73
40708;BME280;26392;42.696;23.350;2023-07-13T11:48:46;95360.66;;;35.92;31.46
40708;BME280;26392;42.696;23.350;2023-07-13T11:51:26;95357.03;;;35.88;31.17
40708;BME280;26392;42.696;23.350;2023-07-13T11:53:54;95357.91;;;35.81;31.29
40708;BME280;26392;42.696;23.350;2023-07-13T11:56:20;95349.47;;;35.77;31.79
40708;BME280;26392;42.696;23.350;2023-07-13T11:58:55;95344.50;;;35.85;33.13
40708;BME280;26392;42.696;23.350;2023-07-13T12:01:29;95340.91;;;35.81;32.19
40708;BME280;26392;42.696;23.350;2023-07-13T12:03:59;95335.69;;;35.76;33.33
40708;BME280;26392;42.696;23.350;2023-07-13T12:06:28;95336.00;;;35.89;32.88
40708;BME280;26392;42.696;23.350;2023-07-13T12:09:01;95324.63;;;35.92;33.94
40708;BME280;26392;42.696;23.350;2023-07-13T12:11:28;95327.94;;;35.83;32.78
40708;BME280;26392;42.696;23.350;2023-07-13T12:13:54;95329.63;;;35.77;33.26
40708;BME280;26392;42.696;23.350;2023-07-13T12:16:29;95330.31;;;35.89;32.70
40708;BME280;26392;42.696;23.350;2023-07-13T12:18:59;95311.69;;;35.88;31.92
40708;BME280;26392;42.696;23.350;2023-07-13T12:21:37;95318.16;;;35.92;32.35
40708;BME280;26392;42.696;23.350;2023-07-13T12:24:03;95315.75;;;35.86;32.90
40708;BME280;26392;42.696;23.350;2023-07-13T12:26:29;95309.94;;;36.01;34.21
40708;BME280;26392;42.696;23.350;2023-07-13T12:28:59;95298.53;;;36.12;33.59
40708;BME280;26392;42.696;23.350;2023-07-13T12:33:58;95295.31;;;36.10;31.22
40708;BME280;26392;42.696;23.350;2023-07-13T12:36:24;95290.56;;;35.96;31.16
40708;BME280;26392;42.696;23.350;2023-07-13T12:38:50;95291.34;;;36.00;31.23
40708;BME280;26392;42.696;23.350;2023-07-13T12:41:16;95286.13;;;35.95;30.37
40708;BME280;26392;42.696;23.350;2023-07-13T12:43:42;95282.84;;;36.00;31.02
40708;BME280;26392;42.696;23.350;2023-07-13T12:46:18;95278.69;;;36.12;31.54
40708;BME280;26392;42.696;23.350;2023-07-13T12:48:44;95274.53;;;36.20;30.91
40708;BME280;26392;42.696;23.350;2023-07-13T12:51:13;95260.41;;;36.16;30.98
40708;BME280;26392;42.696;23.350;2023-07-13T12:53:48;95270.06;;;36.22;31.63
40708;BME280;26392;42.696;23.350;2023-07-13T12:56:22;95264.38;;;36.22;31.82
40708;BME280;26392;42.696;23.350;2023-07-13T12:58:48;95257.41;;;36.27;31.50
40708;BME280;26392;42.696;23.350;2023-07-13T13:01:21;95268.59;;;36.41;31.53
40708;BME280;26392;42.696;23.350;2023-07-13T13:03:50;95261.25;;;36.44;31.19
40708;BME280;26392;42.696;23.350;2023-07-13T13:08:45;95253.97;;;36.43;29.43
40708;BME280;26392;42.696;23.350;2023-07-13T13:11:11;95254.84;;;36.40;30.36
40708;BME280;26392;42.696;23.350;2023-07-13T13:13:36;95245.47;;;36.43;29.29
40708;BME280;26392;42.696;23.350;2023-07-13T13:16:51;95245.38;;;36.54;30.08
40708;BME280;26392;42.696;23.350;2023-07-13T13:19:20;95253.69;;;36.68;28.71
40708;BME280;26392;42.696;23.350;2023-07-13T13:21:47;95244.31;;;36.71;29.54
40708;BME280;26392;42.696;23.350;2023-07-13T13:24:18;95240.19;;;36.76;29.05
40708;BME280;26392;42.696;23.350;2023-07-13T13:26:46;95233.72;;;36.75;29.27
40708;BME280;26392;42.696;23.350;2023-07-13T13:29:14;95242.97;;;36.79;29.25
40708;BME280;26392;42.696;23.350;2023-07-13T13:31:40;95234.84;;;36.81;30.47
40708;BME280;26392;42.696;23.350;2023-07-13T13:34:16;95236.44;;;36.82;28.63
40708;BME280;26392;42.696;23.350;2023-07-13T13:36:43;95231.41;;;36.66;29.28